KFME/FME METAR and TAF weather

Enter ICAO airport designator
Station Type Date Time Source
KFME METAR 2021/07/28 02:55 UTC NOAA

KFME 280255Z AUTO 00000KT 10SM CLR 20/18 A3000 RMK AO1


Station Type Date Time Source
KFME Decoded METAR 2021/07/28 02:55 UTC NOAA

Fort Meade / Tipton, MD, United States (KFME) 39-05N 076-46W
Jul 27, 2021 - 10:55 PM EDT / 2021.07.28 0255 UTC
Wind: Calm:0
Visibility: 10 mile(s):0
Sky conditions: clear
Temperature: 68 F (20 C)
Dew Point: 64 F (18 C)
Relative Humidity: 88%
Pressure (altimeter): 30 in. Hg (1015 hPa)
ob: KFME 280255Z AUTO 00000KT 10SM CLR 20/18 A3000 RMK AO1
cycle: 3

Station Type Date Time Source
KFME TAF UTC NOAA

Error!

Example: see airport list